createdAt,value
2019-05-29T00:04:12.534Z,99.9
2019-05-29T00:14:27.673Z,99.9
2019-05-29T00:24:31.336Z,99.9
2019-05-29T00:34:34.759Z,99.9
2019-05-29T00:44:38.196Z,99.9
2019-05-29T00:54:41.639Z,99.9
2019-05-29T01:04:45.110Z,99.9
2019-05-29T01:14:50.846Z,99.9
2019-05-29T01:24:54.391Z,99.9
2019-05-29T01:34:57.866Z,99.9
2019-05-29T01:45:08.746Z,99.9
2019-05-29T01:55:12.447Z,99.9
2019-05-29T02:05:15.907Z,99.9
2019-05-29T02:15:33.601Z,99.9
2019-05-29T02:25:37.647Z,99.9
2019-05-29T02:35:41.098Z,99.9
2019-05-29T02:45:55.268Z,99.9
2019-05-29T02:55:58.876Z,99.9
2019-05-29T03:06:02.355Z,99.9
2019-05-29T03:16:13.030Z,99.9
2019-05-29T03:26:16.848Z,99.9
2019-05-29T03:36:20.360Z,99.9
2019-05-29T03:46:42.610Z,99.9
2019-05-29T03:56:49.867Z,99.9
2019-05-29T04:06:53.317Z,99.9
2019-05-29T04:17:00.574Z,99.9
2019-05-29T04:27:04.293Z,99.9
2019-05-29T04:37:07.844Z,99.9
2019-05-29T04:47:12.926Z,99.9
2019-05-29T04:57:16.470Z,99.9
2019-05-29T05:07:19.959Z,99.9
2019-05-29T05:17:26.885Z,99.9
2019-05-29T05:27:30.347Z,99.9
2019-05-29T05:37:34.863Z,99.9
2019-05-29T05:47:57.646Z,99.9
2019-05-29T05:58:01.655Z,99.9
2019-05-29T06:08:05.120Z,99.9
2019-05-29T06:18:21.985Z,99.9
2019-05-29T06:28:25.657Z,99.9
2019-05-29T06:38:29.144Z,99.9
2019-05-29T06:48:59.207Z,99.9
2019-05-29T06:59:04.623Z,99.9
2019-05-29T07:09:08.035Z,99.9
2019-05-29T07:19:45.330Z,99.9
2019-05-29T07:30:07.504Z,99.9
2019-05-29T07:40:10.966Z,99.9
2019-05-29T07:50:14.421Z,99.9
2019-05-29T08:00:17.858Z,99.9
2019-05-29T08:10:21.281Z,99.9
2019-05-29T08:20:24.713Z,99.9
2019-05-29T08:30:28.212Z,99.9
2019-05-29T08:40:31.667Z,99.9
2019-05-29T08:50:35.143Z,99.9
2019-05-29T09:00:38.616Z,99.9
2019-05-29T09:10:43.451Z,99.9
2019-05-29T09:21:04.278Z,99.9
2019-05-29T09:31:08.074Z,99.9
2019-05-29T09:41:11.539Z,99.9
2019-05-29T09:51:22.032Z,99.9
2019-05-29T10:01:26.129Z,99.9
2019-05-29T10:11:30.616Z,98.5
2019-05-29T10:21:41.553Z,89.2
2019-05-29T10:31:49.133Z,97.6
2019-05-29T10:41:56.779Z,99.9
2019-05-29T10:52:17.003Z,99.9
2019-05-29T11:02:21.168Z,99.9
2019-05-29T11:12:24.635Z,99.9
2019-05-29T11:22:28.084Z,99.9
2019-05-29T11:32:31.699Z,99.9
2019-05-29T11:42:35.189Z,99.9
2019-05-29T11:52:43.722Z,99.9
2019-05-29T12:02:47.287Z,99.9
2019-05-29T12:12:51.601Z,99.9
2019-05-29T12:23:26.109Z,99.9
2019-05-29T12:33:30.798Z,99.9
2019-05-29T12:43:34.231Z,99.9
2019-05-29T12:53:37.685Z,99.9
2019-05-29T13:03:46.009Z,99.9
2019-05-29T13:13:49.541Z,99.9
2019-05-29T13:23:52.973Z,99.9
2019-05-29T13:33:57.440Z,99.9
2019-05-29T13:44:02.876Z,99.9
2019-05-29T13:54:17.885Z,92.9
2019-05-29T14:04:22.068Z,95.6
2019-05-29T14:14:25.576Z,77
2019-05-29T14:24:30.890Z,76.6
2019-05-29T14:34:34.459Z,67.8
2019-05-29T14:44:38.039Z,73.3
2019-05-29T14:54:43.027Z,68.4
2019-05-29T15:04:46.552Z,67.9
2019-05-29T15:14:50.027Z,67.9
2019-05-29T15:25:14.266Z,71.1
2019-05-29T15:35:27.958Z,96.1
2019-05-29T15:45:31.468Z,95.5
2019-05-29T15:55:35.214Z,98.1
2019-05-29T16:05:38.669Z,99.9
2019-05-29T16:15:42.159Z,99.9
2019-05-29T16:25:45.634Z,99.9
2019-05-29T16:35:49.115Z,99.9
2019-05-29T16:45:52.626Z,99.9
2019-05-29T16:55:56.141Z,99.9
2019-05-29T17:05:59.589Z,99.9
2019-05-29T17:16:03.064Z,99.9
2019-05-29T17:26:11.414Z,99.9
2019-05-29T17:36:15.095Z,99.9
2019-05-29T17:46:19.672Z,99.9
2019-05-29T17:56:36.810Z,99.9
2019-05-29T18:06:40.942Z,99.9
2019-05-29T18:16:44.389Z,99.9
2019-05-29T18:26:47.830Z,99.9
2019-05-29T18:36:51.290Z,99.9
2019-05-29T18:46:54.763Z,99.9
2019-05-29T18:57:16.176Z,99.9
2019-05-29T19:07:19.874Z,99.9
2019-05-29T19:17:26.095Z,99.9
2019-05-29T19:27:42.051Z,99.9
2019-05-29T19:37:46.020Z,99.9
2019-05-29T19:47:49.499Z,99.9
2019-05-29T19:57:56.993Z,99.9
2019-05-29T20:08:00.521Z,99.9
2019-05-29T20:18:04.028Z,99.9
2019-05-29T20:28:07.472Z,99.9
2019-05-29T20:38:10.940Z,99.9
2019-05-29T20:48:14.506Z,99.9
2019-05-29T20:58:25.239Z,99.9
2019-05-29T21:08:28.802Z,99.9
2019-05-29T21:18:32.241Z,99.9
2019-05-29T21:28:48.451Z,99.9
2019-05-29T21:38:54.297Z,99.9
2019-05-29T21:48:57.728Z,99.9
2019-05-29T21:59:04.502Z,99.9
2019-05-29T22:09:07.993Z,99.9
2019-05-29T22:19:11.428Z,99.9
2019-05-29T22:29:18.739Z,99.9
2019-05-29T22:39:22.233Z,99.9
2019-05-29T22:49:25.713Z,99.9
2019-05-29T22:59:32.600Z,99.9
2019-05-29T23:09:36.093Z,99.9
2019-05-29T23:19:39.572Z,99.9
2019-05-29T23:29:49.590Z,99.9
2019-05-29T23:39:53.319Z,99.9
2019-05-29T23:49:57.671Z,99.9
